Time;durP1;ratioP1;P1;durP2;ratioP2;P2;SDS_P1;SDS_P2;PMS_P1;PMS_P2;Temp;Humidity;BMP_temperature;BMP_pressure;BME280_temperature;BME280_humidity;BME280_pressure;Samples;Min_cycle;Max_cycle;Signal;HPM_P1;HPM_P2
2021/09/19 00:07:58;;;;;;;4.65;3.22;;;15.70;99.90;;;;;;6737209;88;20690;-78
2021/09/19 00:17:59;;;;;;;5.90;3.95;;;15.50;99.90;;;;;;6737877;88;20214;-77
2021/09/19 00:28:00;;;;;;;7.25;4.87;;;15.30;99.90;;;;;;6736450;88;20246;-79
2021/09/19 00:38:00;;;;;;;7.22;5.05;;;14.90;99.90;;;;;;6736119;88;20646;-78
2021/09/19 00:48:01;;;;;;;6.78;3.72;;;14.70;99.90;;;;;;6737248;88;20288;-79
2021/09/19 00:58:08;;;;;;;6.55;3.22;;;14.70;99.90;;;;;;6736283;88;20188;-79
2021/09/19 01:08:09;;;;;;;4.80;3.20;;;14.90;99.90;;;;;;6738873;88;20188;-78
2021/09/19 01:18:10;;;;;;;6.00;3.03;;;15.00;99.90;;;;;;6735706;88;20235;-77
2021/09/19 01:28:12;;;;;;;3.55;2.40;;;14.90;99.90;;;;;;6750484;88;20662;-78
2021/09/19 01:38:12;;;;;;;7.22;3.67;;;14.70;99.90;;;;;;6753208;87;20192;-76
2021/09/19 01:48:13;;;;;;;5.15;3.55;;;14.50;99.90;;;;;;6756319;88;20196;-77
2021/09/19 01:58:13;;;;;;;5.85;3.60;;;14.40;99.90;;;;;;6746874;77;20254;-77
2021/09/19 02:08:14;;;;;;;6.47;3.53;;;14.20;99.90;;;;;;6750227;88;20284;-76
2021/09/19 02:18:15;;;;;;;4.28;2.85;;;13.90;99.90;;;;;;6752266;88;20300;-76
2021/09/19 02:28:17;;;;;;;4.53;3.03;;;13.90;99.90;;;;;;6745991;88;20251;-76
2021/09/19 02:38:17;;;;;;;5.00;2.97;;;13.60;99.90;;;;;;6735912;88;20919;-76
2021/09/19 02:48:18;;;;;;;4.10;2.58;;;13.60;99.90;;;;;;6736440;88;20176;-77
2021/09/19 02:58:19;;;;;;;5.03;2.75;;;13.40;99.90;;;;;;6737791;88;20211;-77
2021/09/19 03:08:20;;;;;;;3.95;2.78;;;13.30;99.90;;;;;;6735965;88;20218;-76
2021/09/19 03:18:20;;;;;;;4.50;2.90;;;13.30;99.90;;;;;;6734902;88;20647;-76
2021/09/19 03:28:21;;;;;;;6.70;3.30;;;13.30;99.90;;;;;;6735740;88;20259;-76
2021/09/19 03:38:21;;;;;;;4.80;3.00;;;13.20;99.90;;;;;;6735950;88;20242;-76
2021/09/19 03:48:22;;;;;;;4.40;2.87;;;12.90;99.90;;;;;;6735671;88;20701;-76
2021/09/19 03:58:23;;;;;;;3.40;2.10;;;12.80;99.90;;;;;;6734763;88;20203;-77
2021/09/19 04:08:23;;;;;;;3.10;2.05;;;12.70;99.90;;;;;;6749534;88;20504;-76
2021/09/19 04:18:24;;;;;;;4.30;2.72;;;12.70;99.90;;;;;;6752047;88;20184;-77
2021/09/19 04:28:24;;;;;;;5.12;2.80;;;12.70;99.90;;;;;;6753108;88;20192;-77
2021/09/19 04:38:25;;;;;;;3.75;2.90;;;12.80;99.90;;;;;;6753298;88;20604;-77
2021/09/19 04:48:25;;;;;;;5.12;3.40;;;12.90;99.90;;;;;;6753003;88;20238;-77
2021/09/19 04:58:26;;;;;;;5.40;3.55;;;12.60;99.90;;;;;;6752628;88;20265;-77
2021/09/19 05:08:27;;;;;;;5.03;3.30;;;12.60;99.90;;;;;;6736058;88;20219;-76
2021/09/19 05:18:27;;;;;;;5.32;3.30;;;12.50;99.90;;;;;;6734841;88;20365;-77
2021/09/19 05:28:28;;;;;;;4.53;3.00;;;12.40;99.90;;;;;;6737073;88;20185;-76
2021/09/19 05:38:29;;;;;;;5.40;3.20;;;12.50;99.90;;;;;;6737284;88;20671;-77
2021/09/19 05:48:29;;;;;;;3.95;2.83;;;12.40;99.90;;;;;;6739268;88;20215;-77
2021/09/19 05:58:30;;;;;;;5.18;2.67;;;12.60;99.90;;;;;;6738627;88;20738;-76
2021/09/19 06:08:30;;;;;;;4.97;3.20;;;12.50;99.90;;;;;;6750875;88;20255;-76
2021/09/19 06:18:32;;;;;;;6.05;3.25;;;12.60;99.90;;;;;;6753836;88;20316;-77
2021/09/19 06:28:33;;;;;;;6.85;3.08;;;12.80;99.90;;;;;;6753292;88;20361;-77
2021/09/19 06:38:34;;;;;;;6.85;2.95;;;13.10;99.90;;;;;;6755416;88;20297;-76
2021/09/19 06:48:34;;;;;;;5.65;2.50;;;13.70;99.90;;;;;;6756436;88;20337;-76
2021/09/19 06:58:35;;;;;;;3.03;2.17;;;14.30;99.90;;;;;;6741427;88;20759;-76
2021/09/19 07:08:35;;;;;;;2.85;1.70;;;14.90;99.90;;;;;;6751139;88;20200;-76
2021/09/19 07:18:36;;;;;;;3.15;1.80;;;15.20;99.90;;;;;;6754080;88;20192;-77
2021/09/19 07:28:37;;;;;;;4.62;1.98;;;15.50;99.90;;;;;;6755377;88;20657;-78
2021/09/19 07:38:37;;;;;;;5.80;2.00;;;16.20;99.90;;;;;;6750506;88;21008;-79
2021/09/19 07:48:38;;;;;;;2.80;1.58;;;16.90;99.90;;;;;;6750959;88;20320;-76
2021/09/19 07:58:39;;;;;;;3.07;2.03;;;17.80;99.90;;;;;;6745527;77;20217;-77
2021/09/19 08:08:39;;;;;;;2.42;1.40;;;17.90;99.90;;;;;;6749723;88;20548;-78
2021/09/19 08:18:40;;;;;;;3.20;1.42;;;18.40;99.90;;;;;;6752841;88;20203;-78
2021/09/19 08:28:40;;;;;;;2.33;1.60;;;18.80;99.90;;;;;;6749398;88;20258;-78
2021/09/19 08:38:41;;;;;;;2.00;1.30;;;18.50;99.90;;;;;;6749501;88;20199;-79
2021/09/19 08:48:42;;;;;;;2.47;1.42;;;19.00;99.90;;;;;;6753476;88;20249;-78
2021/09/19 08:58:42;;;;;;;2.27;1.57;;;19.70;99.90;;;;;;6750982;88;20176;-78
2021/09/19 09:08:44;;;;;;;2.15;1.40;;;19.30;99.90;;;;;;6754589;88;20527;-77
2021/09/19 09:18:53;;;;;;;2.28;1.50;;;20.10;99.90;;;;;;6750718;88;20281;-78
2021/09/19 09:29:03;;;;;;;2.53;1.70;;;20.50;99.90;;;;;;6753075;88;20191;-77
2021/09/19 09:39:39;;;;;;;2.17;1.48;;;20.60;99.90;;;;;;6752792;88;20208;-78
2021/09/19 09:49:51;;;;;;;3.45;1.40;;;21.00;99.90;;;;;;6752027;88;20201;-79
2021/09/19 09:59:54;;;;;;;2.10;1.40;;;21.10;99.90;;;;;;6752372;88;20203;-78
2021/09/19 10:09:54;;;;;;;2.28;1.70;;;20.90;99.90;;;;;;6753570;88;20234;-79
2021/09/19 10:19:55;;;;;;;2.77;1.77;;;21.30;99.90;;;;;;6751776;88;20323;-77
2021/09/19 10:30:10;;;;;;;2.08;1.48;;;20.60;99.90;;;;;;6756128;88;20625;-78
2021/09/19 10:40:10;;;;;;;2.62;1.65;;;21.00;99.90;;;;;;6757531;88;20291;-78
2021/09/19 10:50:12;;;;;;;2.15;1.40;;;21.10;99.90;;;;;;6754780;88;20822;-78
2021/09/19 11:00:18;;;;;;;3.65;1.60;;;21.90;99.90;;;;;;6757957;88;20204;-77
2021/09/19 11:10:18;;;;;;;2.62;1.30;;;21.30;99.90;;;;;;6756262;88;20205;-79
2021/09/19 11:20:22;;;;;;;5.12;1.67;;;21.70;99.90;;;;;;6755172;88;20285;-78
2021/09/19 11:30:28;;;;;;;1.77;1.23;;;22.40;99.90;;;;;;6754800;88;20187;-77
2021/09/19 11:40:28;;;;;;;1.98;1.40;;;23.50;98.40;;;;;;6753366;88;20357;-79
2021/09/19 11:50:35;;;;;;;2.00;1.37;;;22.70;99.00;;;;;;6750210;88;20269;-77
2021/09/19 12:00:35;;;;;;;2.20;1.40;;;22.80;97.90;;;;;;6746830;88;20612;-77
2021/09/19 12:10:36;;;;;;;2.28;1.60;;;23.80;97.10;;;;;;6740377;88;20195;-78
2021/09/19 12:20:36;;;;;;;2.65;1.65;;;23.50;97.20;;;;;;6755444;88;20180;-79
2021/09/19 12:30:40;;;;;;;2.30;1.60;;;22.50;99.70;;;;;;6755074;88;20313;-79
2021/09/19 12:40:41;;;;;;;;;;;21.90;99.90;;;;;;6748451;88;20199;-78
2021/09/19 12:50:42;;;;;;;2.37;1.60;;;21.30;99.90;;;;;;6750099;88;20061;-79
2021/09/19 13:00:45;;;;;;;2.78;1.70;;;21.30;99.90;;;;;;6747238;88;20276;-78
2021/09/19 13:10:47;;;;;;;2.08;1.48;;;21.20;99.90;;;;;;6734824;88;20184;-77
2021/09/19 13:20:47;;;;;;;3.85;2.03;;;21.20;99.90;;;;;;6737070;88;20204;-79
2021/09/19 13:30:48;;;;;;;3.65;2.10;;;21.20;99.90;;;;;;6739486;88;20673;-78
2021/09/19 13:40:49;;;;;;;3.40;2.15;;;20.80;99.90;;;;;;6738587;88;20267;-80
2021/09/19 13:50:49;;;;;;;3.20;2.20;;;20.80;99.90;;;;;;6740810;88;20236;-80
2021/09/19 14:00:50;;;;;;;2.67;2.03;;;20.70;99.90;;;;;;6750726;77;20234;-78
2021/09/19 14:10:51;;;;;;;4.60;2.10;;;20.80;99.90;;;;;;6753456;88;20212;-76
2021/09/19 14:20:51;;;;;;;4.00;2.30;;;20.30;99.90;;;;;;6755827;88;20722;-76
2021/09/19 14:30:52;;;;;;;7.50;2.17;;;20.10;99.90;;;;;;6749381;88;20588;-77
2021/09/19 14:40:53;;;;;;;2.90;2.15;;;20.00;99.90;;;;;;6753665;88;20196;-77
2021/09/19 14:50:53;;;;;;;3.20;2.40;;;19.40;99.90;;;;;;6753691;88;20247;-79
2021/09/19 15:00:54;;;;;;;3.72;2.47;;;19.30;99.90;;;;;;6752904;88;20686;-76
2021/09/19 15:10:54;;;;;;;3.72;2.20;;;19.40;99.90;;;;;;6750239;88;20204;-76
2021/09/19 15:20:55;;;;;;;3.03;2.10;;;19.70;99.90;;;;;;6754716;88;20266;-79
2021/09/19 15:30:56;;;;;;;3.15;2.12;;;19.70;99.90;;;;;;6753785;88;20184;-76
2021/09/19 15:40:57;;;;;;;3.85;2.03;;;19.60;99.90;;;;;;6753820;88;20229;-76
2021/09/19 15:51:01;;;;;;;2.83;2.05;;;19.40;99.90;;;;;;6754276;88;20692;-76
2021/09/19 16:01:03;;;;;;;3.70;2.40;;;19.70;99.90;;;;;;6755003;88;20287;-78
2021/09/19 16:11:05;;;;;;;3.47;2.50;;;19.50;99.90;;;;;;6760800;87;20739;-81
2021/09/19 16:21:07;;;;;;;3.50;2.45;;;19.40;99.90;;;;;;6739925;88;20221;-82
2021/09/19 16:31:07;;;;;;;3.87;2.80;;;19.50;99.90;;;;;;6744354;88;20708;-78
2021/09/19 16:41:08;;;;;;;5.22;3.00;;;19.90;99.90;;;;;;6771037;88;20185;-82
2021/09/19 16:51:09;;;;;;;6.72;3.40;;;19.20;99.90;;;;;;6773336;88;20180;-81
2021/09/19 17:01:12;;;;;;;4.47;2.95;;;18.40;99.90;;;;;;6758444;88;20625;-79
2021/09/19 17:11:12;;;;;;;5.10;2.40;;;18.10;99.90;;;;;;6750486;88;20190;-81
2021/09/19 17:21:13;;;;;;;3.60;2.80;;;17.80;99.90;;;;;;6745855;88;20623;-82
2021/09/19 17:31:14;;;;;;;4.22;2.78;;;17.50;99.90;;;;;;6754342;88;20333;-79
2021/09/19 17:41:15;;;;;;;5.75;3.28;;;17.20;99.90;;;;;;6741026;88;20397;-78
2021/09/19 17:51:16;;;;;;;4.10;3.10;;;17.10;99.90;;;;;;6734857;88;20345;-80
2021/09/19 18:01:16;;;;;;;5.18;3.85;;;16.70;99.90;;;;;;6758546;88;20750;-80
2021/09/19 18:11:17;;;;;;;4.60;3.45;;;16.50;99.90;;;;;;6763496;88;20197;-81
2021/09/19 18:21:21;;;;;;;5.35;3.50;;;16.40;99.90;;;;;;6756819;88;20262;-80
2021/09/19 18:31:21;;;;;;;4.53;3.35;;;16.20;99.90;;;;;;6762434;88;20256;-79
2021/09/19 18:41:22;;;;;;;4.40;3.22;;;16.00;99.90;;;;;;6756859;88;20185;-80
2021/09/19 18:51:23;;;;;;;5.37;3.65;;;15.80;99.90;;;;;;6759804;88;20223;-78
2021/09/19 19:01:24;;;;;;;6.65;3.80;;;15.80;99.90;;;;;;6751884;88;20201;-78
2021/09/19 19:11:24;;;;;;;5.20;3.60;;;15.80;99.90;;;;;;6748240;88;20426;-80
2021/09/19 19:21:25;;;;;;;4.95;3.78;;;15.70;99.90;;;;;;6760729;88;20694;-78
2021/09/19 19:31:27;;;;;;;5.00;3.43;;;15.50;99.90;;;;;;6757135;88;20511;-78
2021/09/19 19:41:27;;;;;;;8.02;4.28;;;15.30;99.90;;;;;;6758529;88;20191;-78
2021/09/19 19:51:28;;;;;;;6.62;3.90;;;15.30;99.90;;;;;;6758922;88;20209;-78
2021/09/19 20:01:28;;;;;;;4.87;3.60;;;15.40;99.90;;;;;;6757901;88;20177;-77
2021/09/19 20:12:10;;;;;;;6.68;3.67;;;15.30;99.90;;;;;;6740713;77;20248;-83
2021/09/19 20:22:11;;;;;;;5.35;3.53;;;15.00;99.90;;;;;;6741345;88;20686;-80
2021/09/19 20:32:12;;;;;;;5.28;3.60;;;15.00;99.90;;;;;;6741711;88;20710;-80
2021/09/19 20:42:13;;;;;;;4.83;3.50;;;14.70;99.90;;;;;;6741523;88;20188;-80
2021/09/19 20:52:13;;;;;;;4.80;3.83;;;14.60;99.90;;;;;;6742088;88;20202;-79
2021/09/19 21:02:14;;;;;;;4.90;3.72;;;14.30;99.90;;;;;;6728389;88;20272;-78
2021/09/19 21:12:14;;;;;;;7.35;4.07;;;14.40;99.90;;;;;;6723427;88;20181;-78
2021/09/19 21:22:15;;;;;;;5.72;3.83;;;14.20;99.90;;;;;;6729027;88;20778;-78
2021/09/19 21:32:15;;;;;;;5.35;3.97;;;14.00;99.90;;;;;;6729376;88;20363;-78
2021/09/19 21:42:16;;;;;;;6.75;4.20;;;14.10;99.90;;;;;;6728896;88;20193;-78
2021/09/19 21:52:16;;;;;;;6.00;3.90;;;14.20;99.90;;;;;;6723994;88;20256;-78
2021/09/19 22:02:17;;;;;;;5.03;3.60;;;14.20;99.90;;;;;;6729847;88;20592;-77
2021/09/19 22:12:52;;;;;;;4.80;3.58;;;14.20;99.90;;;;;;6726009;88;20189;-78
2021/09/19 22:22:44;;;;;;;5.95;3.60;;;14.20;99.90;;;;;;6726368;88;20367;-78
2021/09/19 22:32:47;;;;;;;6.43;3.70;;;14.30;99.90;;;;;;6728306;88;20998;-77
2021/09/19 22:42:48;;;;;;;5.60;3.70;;;14.30;99.90;;;;;;6731276;88;20176;-78
2021/09/19 22:52:48;;;;;;;5.80;3.75;;;14.20;99.90;;;;;;6731236;88;20191;-82
2021/09/19 23:02:49;;;;;;;6.60;3.65;;;14.30;99.90;;;;;;6722918;88;20192;-78
2021/09/19 23:12:50;;;;;;;5.90;4.00;;;14.30;99.90;;;;;;6718456;88;20653;-79
2021/09/19 23:22:50;;;;;;;5.68;3.92;;;14.10;99.90;;;;;;6722343;88;20536;-77
2021/09/19 23:32:51;;;;;;;6.27;4.37;;;14.10;99.90;;;;;;6721677;88;20189;-78
2021/09/19 23:42:52;;;;;;;6.80;4.50;;;14.10;99.90;;;;;;6723099;88;20426;-79
2021/09/19 23:52:53;;;;;;;6.95;4.12;;;14.00;99.90;;;;;;6736433;88;20244;-78
